sensor_id;sensor_type;location;lat;lon;timestamp;P1;durP1;ratioP1;P2;durP2;ratioP2
10452;SDS011;5274;51.992;8.518;2024-01-30T00:02:23;87.07;;;81.27;;
10452;SDS011;5274;51.992;8.518;2024-01-30T00:04:48;90.30;;;84.40;;
10452;SDS011;5274;51.992;8.518;2024-01-30T00:07:14;82.28;;;76.85;;
10452;SDS011;5274;51.992;8.518;2024-01-30T00:09:40;85.97;;;80.23;;
10452;SDS011;5274;51.992;8.518;2024-01-30T00:12:05;87.95;;;82.10;;
10452;SDS011;5274;51.992;8.518;2024-01-30T00:14:31;80.55;;;75.20;;
10452;SDS011;5274;51.992;8.518;2024-01-30T00:16:57;82.50;;;77.07;;
10452;SDS011;5274;51.992;8.518;2024-01-30T00:19:22;85.60;;;79.77;;
10452;SDS011;5274;51.992;8.518;2024-01-30T00:21:48;84.47;;;78.97;;
10452;SDS011;5274;51.992;8.518;2024-01-30T00:24:13;92.87;;;86.53;;
10452;SDS011;5274;51.992;8.518;2024-01-30T00:26:38;87.10;;;81.50;;
10452;SDS011;5274;51.992;8.518;2024-01-30T00:29:04;89.63;;;83.63;;
10452;SDS011;5274;51.992;8.518;2024-01-30T00:31:29;86.73;;;81.00;;
10452;SDS011;5274;51.992;8.518;2024-01-30T00:33:55;107.20;;;99.43;;
10452;SDS011;5274;51.992;8.518;2024-01-30T00:36:20;109.55;;;101.55;;
10452;SDS011;5274;51.992;8.518;2024-01-30T00:38:46;105.70;;;98.10;;
10452;SDS011;5274;51.992;8.518;2024-01-30T00:41:12;106.65;;;98.90;;
10452;SDS011;5274;51.992;8.518;2024-01-30T00:43:38;106.63;;;98.93;;
10452;SDS011;5274;51.992;8.518;2024-01-30T00:46:03;105.30;;;97.70;;
10452;SDS011;5274;51.992;8.518;2024-01-30T00:48:29;106.50;;;98.87;;
10452;SDS011;5274;51.992;8.518;2024-01-30T00:50:54;106.45;;;98.85;;
10452;SDS011;5274;51.992;8.518;2024-01-30T00:53:20;108.00;;;100.30;;
10452;SDS011;5274;51.992;8.518;2024-01-30T00:55:45;107.67;;;99.97;;
10452;SDS011;5274;51.992;8.518;2024-01-30T00:58:11;98.25;;;91.20;;
10452;SDS011;5274;51.992;8.518;2024-01-30T01:00:36;97.23;;;90.23;;
10452;SDS011;5274;51.992;8.518;2024-01-30T01:03:02;97.13;;;90.23;;
10452;SDS011;5274;51.992;8.518;2024-01-30T01:05:28;98.55;;;91.45;;
10452;SDS011;5274;51.992;8.518;2024-01-30T01:07:53;97.35;;;90.50;;
10452;SDS011;5274;51.992;8.518;2024-01-30T01:10:19;96.47;;;89.53;;
10452;SDS011;5274;51.992;8.518;2024-01-30T01:12:44;98.83;;;91.80;;
10452;SDS011;5274;51.992;8.518;2024-01-30T01:15:11;99.33;;;92.23;;
10452;SDS011;5274;51.992;8.518;2024-01-30T01:17:37;98.07;;;91.07;;
10452;SDS011;5274;51.992;8.518;2024-01-30T01:20:03;98.20;;;91.10;;
10452;SDS011;5274;51.992;8.518;2024-01-30T01:22:30;102.40;;;94.60;;
10452;SDS011;5274;51.992;8.518;2024-01-30T01:24:56;103.27;;;95.67;;
10452;SDS011;5274;51.992;8.518;2024-01-30T01:27:21;104.95;;;97.25;;
10452;SDS011;5274;51.992;8.518;2024-01-30T01:29:47;104.33;;;96.63;;
10452;SDS011;5274;51.992;8.518;2024-01-30T01:32:12;105.10;;;97.33;;
10452;SDS011;5274;51.992;8.518;2024-01-30T01:34:38;104.47;;;96.70;;
10452;SDS011;5274;51.992;8.518;2024-01-30T01:37:03;103.37;;;95.87;;
10452;SDS011;5274;51.992;8.518;2024-01-30T01:39:29;102.97;;;95.43;;
10452;SDS011;5274;51.992;8.518;2024-01-30T01:41:54;105.67;;;97.77;;
10452;SDS011;5274;51.992;8.518;2024-01-30T01:44:20;102.70;;;95.20;;
10452;SDS011;5274;51.992;8.518;2024-01-30T01:46:45;102.63;;;94.75;;
10452;SDS011;5274;51.992;8.518;2024-01-30T01:49:11;100.03;;;92.70;;
10452;SDS011;5274;51.992;8.518;2024-01-30T01:51:37;101.20;;;93.82;;
10452;SDS011;5274;51.992;8.518;2024-01-30T01:54:04;102.50;;;95.00;;
10452;SDS011;5274;51.992;8.518;2024-01-30T01:56:33;101.13;;;93.57;;
10452;SDS011;5274;51.992;8.518;2024-01-30T01:59:00;101.32;;;93.90;;
10452;SDS011;5274;51.992;8.518;2024-01-30T02:01:29;104.63;;;97.03;;
10452;SDS011;5274;51.992;8.518;2024-01-30T02:03:57;106.03;;;98.32;;
10452;SDS011;5274;51.992;8.518;2024-01-30T02:06:23;106.20;;;98.60;;
10452;SDS011;5274;51.992;8.518;2024-01-30T02:08:48;106.00;;;98.40;;
10452;SDS011;5274;51.992;8.518;2024-01-30T02:11:14;103.90;;;96.50;;
10452;SDS011;5274;51.992;8.518;2024-01-30T02:13:41;104.80;;;97.00;;
10452;SDS011;5274;51.992;8.518;2024-01-30T02:16:07;106.40;;;98.67;;
10452;SDS011;5274;51.992;8.518;2024-01-30T02:18:32;106.27;;;98.67;;
10452;SDS011;5274;51.992;8.518;2024-01-30T02:20:58;108.07;;;100.27;;
10452;SDS011;5274;51.992;8.518;2024-01-30T02:23:26;109.35;;;101.35;;
10452;SDS011;5274;51.992;8.518;2024-01-30T02:25:52;109.67;;;101.67;;
10452;SDS011;5274;51.992;8.518;2024-01-30T02:28:18;107.43;;;99.67;;
10452;SDS011;5274;51.992;8.518;2024-01-30T02:30:45;108.57;;;100.68;;
10452;SDS011;5274;51.992;8.518;2024-01-30T02:33:11;104.22;;;96.80;;
10452;SDS011;5274;51.992;8.518;2024-01-30T02:35:37;106.35;;;98.72;;
10452;SDS011;5274;51.992;8.518;2024-01-30T02:38:03;107.13;;;99.43;;
10452;SDS011;5274;51.992;8.518;2024-01-30T02:40:29;108.40;;;100.60;;
10452;SDS011;5274;51.992;8.518;2024-01-30T02:42:54;105.00;;;97.50;;
10452;SDS011;5274;51.992;8.518;2024-01-30T02:45:21;105.30;;;97.78;;
10452;SDS011;5274;51.992;8.518;2024-01-30T02:47:46;109.90;;;101.80;;
10452;SDS011;5274;51.992;8.518;2024-01-30T02:50:12;112.47;;;104.17;;
10452;SDS011;5274;51.992;8.518;2024-01-30T02:52:38;111.63;;;103.50;;
10452;SDS011;5274;51.992;8.518;2024-01-30T02:55:03;112.00;;;103.80;;
10452;SDS011;5274;51.992;8.518;2024-01-30T02:57:29;109.70;;;101.70;;
10452;SDS011;5274;51.992;8.518;2024-01-30T02:59:54;109.70;;;101.83;;
10452;SDS011;5274;51.992;8.518;2024-01-30T03:02:22;108.20;;;100.50;;
10452;SDS011;5274;51.992;8.518;2024-01-30T03:04:47;106.85;;;99.13;;
10452;SDS011;5274;51.992;8.518;2024-01-30T03:07:13;22.50;;;20.90;;
10452;SDS011;5274;51.992;8.518;2024-01-30T03:09:38;22.45;;;20.85;;
10452;SDS011;5274;51.992;8.518;2024-01-30T03:12:06;22.85;;;21.25;;
10452;SDS011;5274;51.992;8.518;2024-01-30T03:14:31;22.97;;;21.27;;
10452;SDS011;5274;51.992;8.518;2024-01-30T03:16:57;23.35;;;21.60;;
10452;SDS011;5274;51.992;8.518;2024-01-30T03:19:23;22.75;;;21.08;;
10452;SDS011;5274;51.992;8.518;2024-01-30T03:21:48;22.07;;;20.53;;
10452;SDS011;5274;51.992;8.518;2024-01-30T03:24:14;22.40;;;20.80;;
10452;SDS011;5274;51.992;8.518;2024-01-30T03:26:39;22.67;;;20.97;;
10452;SDS011;5274;51.992;8.518;2024-01-30T03:29:05;23.50;;;21.60;;
10452;SDS011;5274;51.992;8.518;2024-01-30T03:31:30;23.35;;;21.42;;
10452;SDS011;5274;51.992;8.518;2024-01-30T03:33:55;23.03;;;21.10;;
10452;SDS011;5274;51.992;8.518;2024-01-30T03:36:21;23.17;;;21.47;;
10452;SDS011;5274;51.992;8.518;2024-01-30T03:38:46;22.98;;;21.27;;
10452;SDS011;5274;51.992;8.518;2024-01-30T03:41:12;22.83;;;21.13;;
10452;SDS011;5274;51.992;8.518;2024-01-30T03:43:37;23.60;;;21.90;;
10452;SDS011;5274;51.992;8.518;2024-01-30T03:46:03;23.33;;;21.63;;
10452;SDS011;5274;51.992;8.518;2024-01-30T03:48:29;22.92;;;21.27;;
10452;SDS011;5274;51.992;8.518;2024-01-30T03:50:55;23.40;;;21.60;;
10452;SDS011;5274;51.992;8.518;2024-01-30T03:53:20;22.60;;;20.90;;
10452;SDS011;5274;51.992;8.518;2024-01-30T03:55:46;22.60;;;20.90;;
10452;SDS011;5274;51.992;8.518;2024-01-30T03:58:12;23.57;;;21.73;;
10452;SDS011;5274;51.992;8.518;2024-01-30T04:00:37;23.00;;;21.35;;
10452;SDS011;5274;51.992;8.518;2024-01-30T04:03:03;23.50;;;21.70;;
10452;SDS011;5274;51.992;8.518;2024-01-30T04:05:28;23.27;;;21.42;;
10452;SDS011;5274;51.992;8.518;2024-01-30T04:07:54;23.30;;;21.40;;
10452;SDS011;5274;51.992;8.518;2024-01-30T04:10:19;23.07;;;21.33;;
10452;SDS011;5274;51.992;8.518;2024-01-30T04:12:45;23.07;;;21.30;;
10452;SDS011;5274;51.992;8.518;2024-01-30T04:15:10;22.87;;;21.17;;
10452;SDS011;5274;51.992;8.518;2024-01-30T04:17:36;23.10;;;21.40;;
10452;SDS011;5274;51.992;8.518;2024-01-30T04:20:01;23.67;;;21.67;;
10452;SDS011;5274;51.992;8.518;2024-01-30T04:22:27;22.38;;;20.73;;
10452;SDS011;5274;51.992;8.518;2024-01-30T04:24:53;22.97;;;21.37;;
10452;SDS011;5274;51.992;8.518;2024-01-30T04:27:18;22.73;;;21.10;;
10452;SDS011;5274;51.992;8.518;2024-01-30T04:29:44;23.40;;;21.70;;
10452;SDS011;5274;51.992;8.518;2024-01-30T04:32:09;22.20;;;20.60;;
10452;SDS011;5274;51.992;8.518;2024-01-30T04:34:36;23.20;;;21.50;;
10452;SDS011;5274;51.992;8.518;2024-01-30T04:37:01;23.42;;;21.63;;
10452;SDS011;5274;51.992;8.518;2024-01-30T04:39:27;22.80;;;21.20;;
10452;SDS011;5274;51.992;8.518;2024-01-30T04:41:52;23.48;;;21.75;;
10452;SDS011;5274;51.992;8.518;2024-01-30T04:44:18;23.63;;;21.93;;
10452;SDS011;5274;51.992;8.518;2024-01-30T04:46:44;23.40;;;21.42;;
10452;SDS011;5274;51.992;8.518;2024-01-30T04:49:09;22.83;;;21.03;;
10452;SDS011;5274;51.992;8.518;2024-01-30T04:51:35;22.90;;;21.13;;
10452;SDS011;5274;51.992;8.518;2024-01-30T04:54:01;23.00;;;21.20;;
10452;SDS011;5274;51.992;8.518;2024-01-30T04:56:26;22.90;;;21.10;;
10452;SDS011;5274;51.992;8.518;2024-01-30T04:58:52;23.50;;;21.50;;
10452;SDS011;5274;51.992;8.518;2024-01-30T05:01:17;22.42;;;20.77;;
10452;SDS011;5274;51.992;8.518;2024-01-30T05:03:42;23.17;;;21.17;;
10452;SDS011;5274;51.992;8.518;2024-01-30T05:06:08;23.65;;;21.95;;
10452;SDS011;5274;51.992;8.518;2024-01-30T05:08:34;25.70;;;23.70;;
10452;SDS011;5274;51.992;8.518;2024-01-30T05:11:01;24.55;;;22.88;;
10452;SDS011;5274;51.992;8.518;2024-01-30T05:13:29;24.05;;;22.40;;
10452;SDS011;5274;51.992;8.518;2024-01-30T05:15:55;24.40;;;22.70;;
10452;SDS011;5274;51.992;8.518;2024-01-30T05:18:20;24.88;;;22.98;;
10452;SDS011;5274;51.992;8.518;2024-01-30T05:20:46;23.90;;;22.10;;
10452;SDS011;5274;51.992;8.518;2024-01-30T05:23:11;24.57;;;22.77;;
10452;SDS011;5274;51.992;8.518;2024-01-30T05:25:37;25.37;;;23.53;;
10452;SDS011;5274;51.992;8.518;2024-01-30T05:28:02;26.13;;;24.23;;
10452;SDS011;5274;51.992;8.518;2024-01-30T05:30:28;26.02;;;24.20;;
10452;SDS011;5274;51.992;8.518;2024-01-30T05:32:53;25.60;;;23.83;;
10452;SDS011;5274;51.992;8.518;2024-01-30T05:35:19;24.48;;;22.58;;
10452;SDS011;5274;51.992;8.518;2024-01-30T05:37:46;25.10;;;23.23;;
10452;SDS011;5274;51.992;8.518;2024-01-30T05:40:13;23.20;;;21.60;;
10452;SDS011;5274;51.992;8.518;2024-01-30T05:42:38;24.02;;;22.33;;
10452;SDS011;5274;51.992;8.518;2024-01-30T05:45:04;25.80;;;24.00;;
10452;SDS011;5274;51.992;8.518;2024-01-30T05:47:30;25.37;;;23.47;;
10452;SDS011;5274;51.992;8.518;2024-01-30T05:49:55;25.40;;;23.70;;
10452;SDS011;5274;51.992;8.518;2024-01-30T05:52:21;25.43;;;23.63;;
10452;SDS011;5274;51.992;8.518;2024-01-30T05:54:46;26.08;;;24.27;;
10452;SDS011;5274;51.992;8.518;2024-01-30T05:57:12;25.30;;;23.33;;
10452;SDS011;5274;51.992;8.518;2024-01-30T05:59:38;24.75;;;22.88;;
10452;SDS011;5274;51.992;8.518;2024-01-30T06:02:03;23.30;;;21.60;;
10452;SDS011;5274;51.992;8.518;2024-01-30T06:04:29;23.90;;;22.02;;
10452;SDS011;5274;51.992;8.518;2024-01-30T06:06:54;23.90;;;22.20;;
10452;SDS011;5274;51.992;8.518;2024-01-30T06:09:20;23.38;;;21.77;;
10452;SDS011;5274;51.992;8.518;2024-01-30T06:11:45;23.67;;;21.87;;
10452;SDS011;5274;51.992;8.518;2024-01-30T06:14:11;23.70;;;21.80;;
10452;SDS011;5274;51.992;8.518;2024-01-30T06:16:36;23.37;;;21.67;;
10452;SDS011;5274;51.992;8.518;2024-01-30T06:19:02;23.77;;;22.03;;
10452;SDS011;5274;51.992;8.518;2024-01-30T06:21:27;23.97;;;22.17;;
10452;SDS011;5274;51.992;8.518;2024-01-30T06:23:53;24.00;;;22.40;;
10452;SDS011;5274;51.992;8.518;2024-01-30T06:26:18;24.85;;;23.05;;
10452;SDS011;5274;51.992;8.518;2024-01-30T06:28:44;24.77;;;22.97;;
10452;SDS011;5274;51.992;8.518;2024-01-30T06:31:09;104.07;;;97.27;;
10452;SDS011;5274;51.992;8.518;2024-01-30T06:33:35;103.40;;;96.30;;
10452;SDS011;5274;51.992;8.518;2024-01-30T06:36:00;105.20;;;97.90;;
10452;SDS011;5274;51.992;8.518;2024-01-30T06:38:26;108.68;;;101.18;;
10452;SDS011;5274;51.992;8.518;2024-01-30T06:40:51;107.30;;;99.60;;
10452;SDS011;5274;51.992;8.518;2024-01-30T06:43:17;111.30;;;103.30;;
10452;SDS011;5274;51.992;8.518;2024-01-30T06:45:42;110.13;;;102.27;;
10452;SDS011;5274;51.992;8.518;2024-01-30T06:48:08;104.30;;;96.88;;
10452;SDS011;5274;51.992;8.518;2024-01-30T06:50:33;103.07;;;95.77;;
10452;SDS011;5274;51.992;8.518;2024-01-30T06:52:59;103.53;;;96.32;;
10452;SDS011;5274;51.992;8.518;2024-01-30T06:55:24;104.53;;;97.33;;
10452;SDS011;5274;51.992;8.518;2024-01-30T06:57:50;103.87;;;96.57;;
10452;SDS011;5274;51.992;8.518;2024-01-30T07:00:15;104.15;;;97.05;;
10452;SDS011;5274;51.992;8.518;2024-01-30T07:02:41;104.85;;;97.57;;
10452;SDS011;5274;51.992;8.518;2024-01-30T07:05:07;104.20;;;96.90;;
10452;SDS011;5274;51.992;8.518;2024-01-30T07:07:33;108.28;;;100.78;;
10452;SDS011;5274;51.992;8.518;2024-01-30T07:09:58;103.90;;;96.70;;
10452;SDS011;5274;51.992;8.518;2024-01-30T07:12:24;102.70;;;95.38;;
10452;SDS011;5274;51.992;8.518;2024-01-30T07:14:52;104.97;;;97.57;;
10452;SDS011;5274;51.992;8.518;2024-01-30T07:17:18;105.47;;;98.47;;
10452;SDS011;5274;51.992;8.518;2024-01-30T07:19:43;107.33;;;100.10;;
10452;SDS011;5274;51.992;8.518;2024-01-30T07:22:09;107.55;;;100.25;;
10452;SDS011;5274;51.992;8.518;2024-01-30T07:24:34;105.67;;;98.50;;
10452;SDS011;5274;51.992;8.518;2024-01-30T07:27:00;106.73;;;99.33;;
10452;SDS011;5274;51.992;8.518;2024-01-30T07:29:25;105.45;;;98.13;;
10452;SDS011;5274;51.992;8.518;2024-01-30T07:31:51;105.70;;;98.10;;
10452;SDS011;5274;51.992;8.518;2024-01-30T07:34:16;103.65;;;96.30;;
10452;SDS011;5274;51.992;8.518;2024-01-30T07:36:42;107.70;;;100.00;;
10452;SDS011;5274;51.992;8.518;2024-01-30T07:39:07;106.83;;;99.23;;
10452;SDS011;5274;51.992;8.518;2024-01-30T07:41:33;105.18;;;97.53;;
10452;SDS011;5274;51.992;8.518;2024-01-30T07:43:58;105.10;;;97.60;;
10452;SDS011;5274;51.992;8.518;2024-01-30T07:46:24;104.80;;;97.40;;
10452;SDS011;5274;51.992;8.518;2024-01-30T07:48:49;104.60;;;97.20;;
10452;SDS011;5274;51.992;8.518;2024-01-30T07:51:15;105.13;;;97.50;;
10452;SDS011;5274;51.992;8.518;2024-01-30T07:53:40;101.70;;;94.50;;
10452;SDS011;5274;51.992;8.518;2024-01-30T07:56:06;102.15;;;94.85;;
10452;SDS011;5274;51.992;8.518;2024-01-30T07:58:32;102.13;;;94.70;;
10452;SDS011;5274;51.992;8.518;2024-01-30T08:00:57;101.05;;;93.82;;
10452;SDS011;5274;51.992;8.518;2024-01-30T08:03:23;97.47;;;90.00;;
10452;SDS011;5274;51.992;8.518;2024-01-30T08:05:49;90.03;;;83.32;;
10452;SDS011;5274;51.992;8.518;2024-01-30T08:08:15;91.35;;;84.47;;
10452;SDS011;5274;51.992;8.518;2024-01-30T08:10:40;91.63;;;84.53;;
10452;SDS011;5274;51.992;8.518;2024-01-30T08:13:06;86.17;;;79.93;;
10452;SDS011;5274;51.992;8.518;2024-01-30T08:15:33;89.53;;;82.82;;
10452;SDS011;5274;51.992;8.518;2024-01-30T08:17:58;87.22;;;80.82;;
10452;SDS011;5274;51.992;8.518;2024-01-30T08:20:24;87.03;;;80.63;;
10452;SDS011;5274;51.992;8.518;2024-01-30T08:22:50;88.75;;;82.07;;
10452;SDS011;5274;51.992;8.518;2024-01-30T08:25:16;90.93;;;84.20;;
10452;SDS011;5274;51.992;8.518;2024-01-30T08:27:41;90.87;;;84.30;;
10452;SDS011;5274;51.992;8.518;2024-01-30T08:30:07;90.40;;;83.78;;
10452;SDS011;5274;51.992;8.518;2024-01-30T08:32:33;87.10;;;80.55;;
10452;SDS011;5274;51.992;8.518;2024-01-30T08:34:59;88.83;;;82.17;;
10452;SDS011;5274;51.992;8.518;2024-01-30T08:37:24;91.57;;;84.72;;
10452;SDS011;5274;51.992;8.518;2024-01-30T08:39:50;88.80;;;82.40;;
10452;SDS011;5274;51.992;8.518;2024-01-30T08:42:15;91.33;;;84.63;;
10452;SDS011;5274;51.992;8.518;2024-01-30T08:44:43;90.00;;;83.40;;
10452;SDS011;5274;51.992;8.518;2024-01-30T08:47:09;89.65;;;83.03;;
10452;SDS011;5274;51.992;8.518;2024-01-30T08:49:34;91.37;;;84.67;;
10452;SDS011;5274;51.992;8.518;2024-01-30T08:52:00;93.73;;;86.93;;
10452;SDS011;5274;51.992;8.518;2024-01-30T08:54:25;93.38;;;86.75;;
10452;SDS011;5274;51.992;8.518;2024-01-30T08:56:51;94.20;;;87.30;;
10452;SDS011;5274;51.992;8.518;2024-01-30T08:59:18;96.03;;;89.07;;
10452;SDS011;5274;51.992;8.518;2024-01-30T09:01:43;94.80;;;88.00;;
10452;SDS011;5274;51.992;8.518;2024-01-30T09:04:09;95.50;;;88.50;;
10452;SDS011;5274;51.992;8.518;2024-01-30T09:06:34;94.23;;;87.53;;
10452;SDS011;5274;51.992;8.518;2024-01-30T09:09:00;97.82;;;90.68;;
10452;SDS011;5274;51.992;8.518;2024-01-30T09:11:26;95.47;;;88.63;;
10452;SDS011;5274;51.992;8.518;2024-01-30T09:13:51;92.53;;;86.15;;
10452;SDS011;5274;51.992;8.518;2024-01-30T09:16:17;94.70;;;88.13;;
10452;SDS011;5274;51.992;8.518;2024-01-30T09:18:42;93.67;;;87.37;;
10452;SDS011;5274;51.992;8.518;2024-01-30T09:21:08;88.10;;;82.30;;
10452;SDS011;5274;51.992;8.518;2024-01-30T09:23:34;93.00;;;87.00;;
10452;SDS011;5274;51.992;8.518;2024-01-30T09:26:00;97.47;;;90.97;;
10452;SDS011;5274;51.992;8.518;2024-01-30T09:28:25;97.70;;;91.15;;
10452;SDS011;5274;51.992;8.518;2024-01-30T09:30:51;96.33;;;89.83;;
10452;SDS011;5274;51.992;8.518;2024-01-30T09:33:17;94.85;;;88.25;;
10452;SDS011;5274;51.992;8.518;2024-01-30T09:35:42;94.43;;;87.80;;
10452;SDS011;5274;51.992;8.518;2024-01-30T09:38:08;96.13;;;89.37;;
10452;SDS011;5274;51.992;8.518;2024-01-30T09:40:33;93.22;;;86.72;;
10452;SDS011;5274;51.992;8.518;2024-01-30T09:42:59;90.17;;;83.97;;
10452;SDS011;5274;51.992;8.518;2024-01-30T09:45:27;93.53;;;86.93;;
10452;SDS011;5274;51.992;8.518;2024-01-30T09:47:52;93.17;;;86.83;;
10452;SDS011;5274;51.992;8.518;2024-01-30T09:50:19;100.22;;;93.53;;
10452;SDS011;5274;51.992;8.518;2024-01-30T09:52:45;100.88;;;94.07;;
10452;SDS011;5274;51.992;8.518;2024-01-30T09:55:11;101.30;;;94.50;;
10452;SDS011;5274;51.992;8.518;2024-01-30T09:57:37;100.30;;;93.40;;
10452;SDS011;5274;51.992;8.518;2024-01-30T10:00:03;101.28;;;94.28;;
10452;SDS011;5274;51.992;8.518;2024-01-30T10:02:30;99.72;;;93.03;;
10452;SDS011;5274;51.992;8.518;2024-01-30T10:04:56;98.25;;;91.65;;
10452;SDS011;5274;51.992;8.518;2024-01-30T10:07:22;98.30;;;91.80;;
10452;SDS011;5274;51.992;8.518;2024-01-30T10:09:48;98.63;;;91.82;;
10452;SDS011;5274;51.992;8.518;2024-01-30T10:12:14;100.10;;;93.00;;
10452;SDS011;5274;51.992;8.518;2024-01-30T10:14:40;96.85;;;90.32;;
10452;SDS011;5274;51.992;8.518;2024-01-30T10:17:09;97.88;;;91.20;;
10452;SDS011;5274;51.992;8.518;2024-01-30T10:19:36;97.95;;;91.15;;
10452;SDS011;5274;51.992;8.518;2024-01-30T10:22:03;100.30;;;93.53;;
10452;SDS011;5274;51.992;8.518;2024-01-30T10:24:28;100.82;;;94.00;;
10452;SDS011;5274;51.992;8.518;2024-01-30T10:26:54;100.90;;;93.93;;
10452;SDS011;5274;51.992;8.518;2024-01-30T10:29:20;100.60;;;93.60;;
10452;SDS011;5274;51.992;8.518;2024-01-30T10:31:56;99.72;;;92.93;;
10452;SDS011;5274;51.992;8.518;2024-01-30T10:34:26;93.38;;;87.28;;
10452;SDS011;5274;51.992;8.518;2024-01-30T10:36:54;101.07;;;93.97;;
10452;SDS011;5274;51.992;8.518;2024-01-30T10:39:32;100.80;;;93.85;;
10452;SDS011;5274;51.992;8.518;2024-01-30T10:42:03;100.70;;;93.80;;
10452;SDS011;5274;51.992;8.518;2024-01-30T10:44:30;99.37;;;92.73;;
10452;SDS011;5274;51.992;8.518;2024-01-30T10:47:13;101.10;;;94.20;;
10452;SDS011;5274;51.992;8.518;2024-01-30T10:49:44;103.72;;;96.63;;
10452;SDS011;5274;51.992;8.518;2024-01-30T10:52:11;103.47;;;96.30;;
10452;SDS011;5274;51.992;8.518;2024-01-30T10:54:39;103.28;;;96.38;;
10452;SDS011;5274;51.992;8.518;2024-01-30T10:57:08;102.85;;;95.97;;
10452;SDS011;5274;51.992;8.518;2024-01-30T10:59:36;103.55;;;96.55;;
10452;SDS011;5274;51.992;8.518;2024-01-30T11:02:02;100.35;;;93.55;;
10452;SDS011;5274;51.992;8.518;2024-01-30T11:04:35;100.55;;;93.65;;
10452;SDS011;5274;51.992;8.518;2024-01-30T11:07:01;98.10;;;91.20;;
10452;SDS011;5274;51.992;8.518;2024-01-30T11:09:29;102.40;;;95.07;;
10452;SDS011;5274;51.992;8.518;2024-01-30T11:11:58;100.47;;;93.47;;
10452;SDS011;5274;51.992;8.518;2024-01-30T11:14:25;100.23;;;93.33;;
10452;SDS011;5274;51.992;8.518;2024-01-30T11:16:51;97.43;;;90.72;;
10452;SDS011;5274;51.992;8.518;2024-01-30T11:19:23;102.80;;;95.70;;
10452;SDS011;5274;51.992;8.518;2024-01-30T11:21:52;102.82;;;95.70;;
10452;SDS011;5274;51.992;8.518;2024-01-30T11:24:19;106.35;;;98.75;;
10452;SDS011;5274;51.992;8.518;2024-01-30T11:26:47;107.38;;;99.85;;
10452;SDS011;5274;51.992;8.518;2024-01-30T11:29:26;103.85;;;96.35;;
10452;SDS011;5274;51.992;8.518;2024-01-30T11:31:56;103.33;;;96.17;;
10452;SDS011;5274;51.992;8.518;2024-01-30T11:34:23;102.68;;;95.70;;
10452;SDS011;5274;51.992;8.518;2024-01-30T11:36:51;99.37;;;92.47;;
10452;SDS011;5274;51.992;8.518;2024-01-30T11:39:23;102.77;;;95.57;;
10452;SDS011;5274;51.992;8.518;2024-01-30T11:41:53;103.93;;;96.75;;
10452;SDS011;5274;51.992;8.518;2024-01-30T11:44:19;103.03;;;95.82;;
10452;SDS011;5274;51.992;8.518;2024-01-30T11:46:46;106.50;;;98.90;;
10452;SDS011;5274;51.992;8.518;2024-01-30T11:49:13;105.57;;;98.05;;
10452;SDS011;5274;51.992;8.518;2024-01-30T11:51:38;104.93;;;97.50;;
10452;SDS011;5274;51.992;8.518;2024-01-30T11:54:04;106.68;;;99.20;;
10452;SDS011;5274;51.992;8.518;2024-01-30T11:56:29;106.27;;;98.97;;
10452;SDS011;5274;51.992;8.518;2024-01-30T11:58:55;103.80;;;96.80;;
10452;SDS011;5274;51.992;8.518;2024-01-30T12:01:20;104.88;;;97.78;;
10452;SDS011;5274;51.992;8.518;2024-01-30T12:03:49;104.97;;;97.78;;
10452;SDS011;5274;51.992;8.518;2024-01-30T12:06:15;99.65;;;92.97;;
10452;SDS011;5274;51.992;8.518;2024-01-30T12:08:41;104.03;;;96.73;;
10452;SDS011;5274;51.992;8.518;2024-01-30T12:11:07;102.03;;;94.93;;
10452;SDS011;5274;51.992;8.518;2024-01-30T12:13:33;101.95;;;94.78;;
10452;SDS011;5274;51.992;8.518;2024-01-30T12:16:00;103.72;;;96.43;;
10452;SDS011;5274;51.992;8.518;2024-01-30T12:18:26;104.27;;;96.97;;
10452;SDS011;5274;51.992;8.518;2024-01-30T12:20:58;103.40;;;96.20;;
10452;SDS011;5274;51.992;8.518;2024-01-30T12:23:25;102.93;;;95.93;;
10452;SDS011;5274;51.992;8.518;2024-01-30T12:25:52;102.70;;;95.57;;
10452;SDS011;5274;51.992;8.518;2024-01-30T12:28:17;101.00;;;93.90;;
10452;SDS011;5274;51.992;8.518;2024-01-30T12:30:43;94.80;;;88.28;;
10452;SDS011;5274;51.992;8.518;2024-01-30T12:33:09;97.63;;;90.83;;
10452;SDS011;5274;51.992;8.518;2024-01-30T12:35:35;96.38;;;89.68;;
10452;SDS011;5274;51.992;8.518;2024-01-30T12:38:01;94.23;;;87.83;;
10452;SDS011;5274;51.992;8.518;2024-01-30T12:40:27;95.88;;;89.20;;
10452;SDS011;5274;51.992;8.518;2024-01-30T12:42:53;98.03;;;91.10;;
10452;SDS011;5274;51.992;8.518;2024-01-30T12:45:19;98.03;;;91.03;;
10452;SDS011;5274;51.992;8.518;2024-01-30T12:47:46;97.38;;;90.68;;
10452;SDS011;5274;51.992;8.518;2024-01-30T12:50:12;99.30;;;92.30;;
10452;SDS011;5274;51.992;8.518;2024-01-30T12:52:40;98.45;;;91.75;;
10452;SDS011;5274;51.992;8.518;2024-01-30T12:55:06;94.97;;;88.57;;
10452;SDS011;5274;51.992;8.518;2024-01-30T12:57:32;98.70;;;91.78;;
10452;SDS011;5274;51.992;8.518;2024-01-30T12:59:57;98.87;;;91.97;;
10452;SDS011;5274;51.992;8.518;2024-01-30T13:02:23;98.20;;;91.18;;
10452;SDS011;5274;51.992;8.518;2024-01-30T13:04:49;97.33;;;90.33;;
10452;SDS011;5274;51.992;8.518;2024-01-30T13:07:14;98.25;;;91.35;;
10452;SDS011;5274;51.992;8.518;2024-01-30T13:09:40;97.53;;;90.70;;
10452;SDS011;5274;51.992;8.518;2024-01-30T13:12:06;89.72;;;83.32;;
10452;SDS011;5274;51.992;8.518;2024-01-30T13:14:31;91.32;;;84.97;;
10452;SDS011;5274;51.992;8.518;2024-01-30T13:16:57;92.53;;;86.00;;
10452;SDS011;5274;51.992;8.518;2024-01-30T13:19:22;87.50;;;81.40;;
10452;SDS011;5274;51.992;8.518;2024-01-30T13:21:48;89.40;;;82.97;;
10452;SDS011;5274;51.992;8.518;2024-01-30T13:24:14;91.10;;;84.63;;
10452;SDS011;5274;51.992;8.518;2024-01-30T13:26:39;90.97;;;84.53;;
10452;SDS011;5274;51.992;8.518;2024-01-30T13:29:05;88.90;;;82.60;;
10452;SDS011;5274;51.992;8.518;2024-01-30T13:31:30;91.80;;;85.30;;
10452;SDS011;5274;51.992;8.518;2024-01-30T13:33:56;91.50;;;84.90;;
10452;SDS011;5274;51.992;8.518;2024-01-30T13:36:21;93.87;;;87.17;;
10452;SDS011;5274;51.992;8.518;2024-01-30T13:38:47;96.05;;;89.40;;
10452;SDS011;5274;51.992;8.518;2024-01-30T13:41:13;95.73;;;88.93;;
10452;SDS011;5274;51.992;8.518;2024-01-30T13:43:39;99.90;;;92.95;;
10452;SDS011;5274;51.992;8.518;2024-01-30T13:46:04;97.80;;;90.83;;
10452;SDS011;5274;51.992;8.518;2024-01-30T13:48:30;100.63;;;93.83;;
10452;SDS011;5274;51.992;8.518;2024-01-30T13:50:56;98.40;;;91.22;;
10452;SDS011;5274;51.992;8.518;2024-01-30T13:53:22;98.30;;;91.50;;
10452;SDS011;5274;51.992;8.518;2024-01-30T13:55:48;91.07;;;84.78;;
10452;SDS011;5274;51.992;8.518;2024-01-30T13:58:13;93.43;;;86.77;;
10452;SDS011;5274;51.992;8.518;2024-01-30T14:00:39;100.03;;;92.93;;
10452;SDS011;5274;51.992;8.518;2024-01-30T14:03:04;93.57;;;87.07;;
10452;SDS011;5274;51.992;8.518;2024-01-30T14:05:30;98.60;;;91.30;;
10452;SDS011;5274;51.992;8.518;2024-01-30T14:07:56;94.88;;;88.03;;
10452;SDS011;5274;51.992;8.518;2024-01-30T14:10:22;99.45;;;91.82;;
10452;SDS011;5274;51.992;8.518;2024-01-30T14:12:48;99.93;;;92.53;;
10452;SDS011;5274;51.992;8.518;2024-01-30T14:15:14;97.03;;;89.63;;
10452;SDS011;5274;51.992;8.518;2024-01-30T14:17:40;93.72;;;86.72;;
10452;SDS011;5274;51.992;8.518;2024-01-30T14:20:06;92.90;;;85.93;;
10452;SDS011;5274;51.992;8.518;2024-01-30T14:22:35;92.35;;;85.50;;